sensor_id;sensor_type;location;lat;lon;timestamp;P1;durP1;ratioP1;P2;durP2;ratioP2
9166;SDS011;4618;48.818;9.088;2023-07-20T00:01:26;2.17;;;1.73;;
9166;SDS011;4618;48.818;9.088;2023-07-20T00:03:51;3.07;;;1.57;;
9166;SDS011;4618;48.818;9.088;2023-07-20T00:06:20;1.87;;;1.53;;
9166;SDS011;4618;48.818;9.088;2023-07-20T00:08:47;2.50;;;1.70;;
9166;SDS011;4618;48.818;9.088;2023-07-20T00:11:13;3.97;;;1.60;;
9166;SDS011;4618;48.818;9.088;2023-07-20T00:13:39;2.93;;;1.70;;
9166;SDS011;4618;48.818;9.088;2023-07-20T00:16:05;2.57;;;1.60;;
9166;SDS011;4618;48.818;9.088;2023-07-20T00:18:30;2.70;;;1.43;;
9166;SDS011;4618;48.818;9.088;2023-07-20T00:20:56;3.33;;;1.37;;
9166;SDS011;4618;48.818;9.088;2023-07-20T00:23:22;1.83;;;1.30;;
9166;SDS011;4618;48.818;9.088;2023-07-20T00:25:48;1.87;;;1.40;;
9166;SDS011;4618;48.818;9.088;2023-07-20T00:28:13;2.30;;;1.67;;
9166;SDS011;4618;48.818;9.088;2023-07-20T00:30:39;1.43;;;1.27;;
9166;SDS011;4618;48.818;9.088;2023-07-20T00:33:06;1.67;;;1.20;;
9166;SDS011;4618;48.818;9.088;2023-07-20T00:35:35;2.43;;;1.87;;
9166;SDS011;4618;48.818;9.088;2023-07-20T00:38:00;3.03;;;1.40;;
9166;SDS011;4618;48.818;9.088;2023-07-20T00:40:26;4.67;;;1.53;;
9166;SDS011;4618;48.818;9.088;2023-07-20T00:42:52;1.60;;;1.20;;
9166;SDS011;4618;48.818;9.088;2023-07-20T00:45:17;5.20;;;1.40;;
9166;SDS011;4618;48.818;9.088;2023-07-20T00:47:43;1.97;;;1.40;;
9166;SDS011;4618;48.818;9.088;2023-07-20T00:50:12;1.63;;;1.50;;
9166;SDS011;4618;48.818;9.088;2023-07-20T00:52:38;2.40;;;1.50;;
9166;SDS011;4618;48.818;9.088;2023-07-20T00:55:06;2.63;;;1.50;;
9166;SDS011;4618;48.818;9.088;2023-07-20T00:57:34;2.40;;;1.60;;
9166;SDS011;4618;48.818;9.088;2023-07-20T00:59:59;3.23;;;1.57;;
9166;SDS011;4618;48.818;9.088;2023-07-20T01:02:25;2.03;;;1.40;;
9166;SDS011;4618;48.818;9.088;2023-07-20T01:04:51;4.00;;;1.40;;
9166;SDS011;4618;48.818;9.088;2023-07-20T01:07:28;1.50;;;1.40;;
9166;SDS011;4618;48.818;9.088;2023-07-20T01:12:27;2.67;;;1.50;;
9166;SDS011;4618;48.818;9.088;2023-07-20T01:15:00;2.10;;;1.37;;
9166;SDS011;4618;48.818;9.088;2023-07-20T01:17:26;2.27;;;1.70;;
9166;SDS011;4618;48.818;9.088;2023-07-20T01:19:51;1.60;;;1.40;;
9166;SDS011;4618;48.818;9.088;2023-07-20T01:25:07;2.53;;;1.60;;
9166;SDS011;4618;48.818;9.088;2023-07-20T01:32:56;2.33;;;1.70;;
9166;SDS011;4618;48.818;9.088;2023-07-20T01:35:23;3.17;;;1.93;;
9166;SDS011;4618;48.818;9.088;2023-07-20T01:37:54;2.30;;;1.73;;
9166;SDS011;4618;48.818;9.088;2023-07-20T01:40:20;3.30;;;1.80;;
9166;SDS011;4618;48.818;9.088;2023-07-20T01:42:47;2.40;;;1.63;;
9166;SDS011;4618;48.818;9.088;2023-07-20T01:45:13;2.13;;;1.93;;
9166;SDS011;4618;48.818;9.088;2023-07-20T01:47:38;1.90;;;1.70;;
9166;SDS011;4618;48.818;9.088;2023-07-20T01:50:04;2.27;;;1.77;;
9166;SDS011;4618;48.818;9.088;2023-07-20T01:52:30;2.50;;;1.90;;
9166;SDS011;4618;48.818;9.088;2023-07-20T01:54:56;2.27;;;1.63;;
9166;SDS011;4618;48.818;9.088;2023-07-20T01:57:22;3.33;;;1.97;;
9166;SDS011;4618;48.818;9.088;2023-07-20T01:59:47;2.23;;;1.90;;
9166;SDS011;4618;48.818;9.088;2023-07-20T02:02:13;4.90;;;1.83;;
9166;SDS011;4618;48.818;9.088;2023-07-20T02:04:38;2.10;;;1.90;;
9166;SDS011;4618;48.818;9.088;2023-07-20T02:07:04;4.87;;;2.03;;
9166;SDS011;4618;48.818;9.088;2023-07-20T02:09:30;2.03;;;1.83;;
9166;SDS011;4618;48.818;9.088;2023-07-20T02:11:56;3.03;;;2.00;;
9166;SDS011;4618;48.818;9.088;2023-07-20T02:14:21;2.83;;;1.80;;
9166;SDS011;4618;48.818;9.088;2023-07-20T02:16:49;1.80;;;1.70;;
9166;SDS011;4618;48.818;9.088;2023-07-20T02:19:25;3.37;;;2.30;;
9166;SDS011;4618;48.818;9.088;2023-07-20T02:21:51;3.67;;;1.97;;
9166;SDS011;4618;48.818;9.088;2023-07-20T02:24:17;2.03;;;1.70;;
9166;SDS011;4618;48.818;9.088;2023-07-20T02:26:42;2.33;;;1.83;;
9166;SDS011;4618;48.818;9.088;2023-07-20T02:29:08;2.00;;;1.80;;
9166;SDS011;4618;48.818;9.088;2023-07-20T02:31:36;1.90;;;1.80;;
9166;SDS011;4618;48.818;9.088;2023-07-20T02:34:04;3.00;;;1.90;;
9166;SDS011;4618;48.818;9.088;2023-07-20T02:36:33;2.37;;;1.90;;
9166;SDS011;4618;48.818;9.088;2023-07-20T02:38:59;2.30;;;1.77;;
9166;SDS011;4618;48.818;9.088;2023-07-20T02:41:26;3.73;;;1.90;;
9166;SDS011;4618;48.818;9.088;2023-07-20T02:43:52;2.50;;;1.93;;
9166;SDS011;4618;48.818;9.088;2023-07-20T02:46:18;1.90;;;1.80;;
9166;SDS011;4618;48.818;9.088;2023-07-20T02:48:43;2.43;;;1.80;;
9166;SDS011;4618;48.818;9.088;2023-07-20T02:51:09;3.77;;;1.80;;
9166;SDS011;4618;48.818;9.088;2023-07-20T02:53:36;1.87;;;1.77;;
9166;SDS011;4618;48.818;9.088;2023-07-20T02:56:01;3.00;;;1.90;;
9166;SDS011;4618;48.818;9.088;2023-07-20T02:58:27;2.63;;;1.83;;
9166;SDS011;4618;48.818;9.088;2023-07-20T03:00:53;3.30;;;1.90;;
9166;SDS011;4618;48.818;9.088;2023-07-20T03:03:18;5.87;;;1.70;;
9166;SDS011;4618;48.818;9.088;2023-07-20T03:05:44;2.77;;;1.73;;
9166;SDS011;4618;48.818;9.088;2023-07-20T03:08:10;3.63;;;1.80;;
9166;SDS011;4618;48.818;9.088;2023-07-20T03:10:41;3.13;;;1.90;;
9166;SDS011;4618;48.818;9.088;2023-07-20T03:13:07;8.33;;;1.97;;
9166;SDS011;4618;48.818;9.088;2023-07-20T03:15:33;2.40;;;1.67;;
9166;SDS011;4618;48.818;9.088;2023-07-20T03:17:59;5.00;;;2.10;;
9166;SDS011;4618;48.818;9.088;2023-07-20T03:20:25;1.90;;;1.80;;
9166;SDS011;4618;48.818;9.088;2023-07-20T03:22:50;3.70;;;2.07;;
9166;SDS011;4618;48.818;9.088;2023-07-20T03:25:16;2.67;;;1.90;;
9166;SDS011;4618;48.818;9.088;2023-07-20T03:27:42;3.53;;;1.70;;
9166;SDS011;4618;48.818;9.088;2023-07-20T03:30:08;3.83;;;1.73;;
9166;SDS011;4618;48.818;9.088;2023-07-20T03:32:34;2.33;;;2.10;;
9166;SDS011;4618;48.818;9.088;2023-07-20T03:35:00;2.97;;;2.17;;
9166;SDS011;4618;48.818;9.088;2023-07-20T03:37:26;4.60;;;2.10;;
9166;SDS011;4618;48.818;9.088;2023-07-20T03:39:52;2.17;;;1.90;;
9166;SDS011;4618;48.818;9.088;2023-07-20T03:42:18;2.20;;;2.00;;
9166;SDS011;4618;48.818;9.088;2023-07-20T03:44:43;2.80;;;1.87;;
9166;SDS011;4618;48.818;9.088;2023-07-20T03:47:09;3.40;;;1.90;;
9166;SDS011;4618;48.818;9.088;2023-07-20T03:49:35;3.43;;;2.07;;
9166;SDS011;4618;48.818;9.088;2023-07-20T03:52:01;2.50;;;2.20;;
9166;SDS011;4618;48.818;9.088;2023-07-20T03:54:28;2.07;;;1.87;;
9166;SDS011;4618;48.818;9.088;2023-07-20T03:56:54;2.10;;;1.90;;
9166;SDS011;4618;48.818;9.088;2023-07-20T03:59:19;3.70;;;2.00;;
9166;SDS011;4618;48.818;9.088;2023-07-20T04:01:45;4.00;;;2.10;;
9166;SDS011;4618;48.818;9.088;2023-07-20T04:04:10;5.67;;;1.70;;
9166;SDS011;4618;48.818;9.088;2023-07-20T04:06:36;2.60;;;2.00;;
9166;SDS011;4618;48.818;9.088;2023-07-20T04:09:03;3.07;;;2.07;;
9166;SDS011;4618;48.818;9.088;2023-07-20T04:11:30;3.33;;;1.90;;
9166;SDS011;4618;48.818;9.088;2023-07-20T04:13:55;2.23;;;2.03;;
9166;SDS011;4618;48.818;9.088;2023-07-20T04:16:21;3.67;;;2.00;;
9166;SDS011;4618;48.818;9.088;2023-07-20T04:18:47;2.00;;;1.80;;
9166;SDS011;4618;48.818;9.088;2023-07-20T04:21:12;2.27;;;1.70;;
9166;SDS011;4618;48.818;9.088;2023-07-20T04:23:38;2.17;;;1.97;;
9166;SDS011;4618;48.818;9.088;2023-07-20T04:26:03;2.50;;;1.83;;
9166;SDS011;4618;48.818;9.088;2023-07-20T04:28:29;3.60;;;2.17;;
9166;SDS011;4618;48.818;9.088;2023-07-20T04:30:55;2.60;;;1.73;;
9166;SDS011;4618;48.818;9.088;2023-07-20T04:33:38;3.53;;;2.17;;
9166;SDS011;4618;48.818;9.088;2023-07-20T04:36:04;2.67;;;1.90;;
9166;SDS011;4618;48.818;9.088;2023-07-20T04:38:29;2.83;;;1.83;;
9166;SDS011;4618;48.818;9.088;2023-07-20T04:40:55;2.80;;;1.90;;
9166;SDS011;4618;48.818;9.088;2023-07-20T04:43:21;4.33;;;2.23;;
9166;SDS011;4618;48.818;9.088;2023-07-20T04:45:46;3.33;;;2.30;;
9166;SDS011;4618;48.818;9.088;2023-07-20T04:48:13;2.93;;;2.00;;
9166;SDS011;4618;48.818;9.088;2023-07-20T04:50:40;1.80;;;1.70;;
9166;SDS011;4618;48.818;9.088;2023-07-20T04:53:06;2.73;;;1.80;;
9166;SDS011;4618;48.818;9.088;2023-07-20T04:55:35;4.50;;;1.90;;
9166;SDS011;4618;48.818;9.088;2023-07-20T04:58:02;3.27;;;1.83;;
9166;SDS011;4618;48.818;9.088;2023-07-20T05:00:28;2.93;;;1.70;;
9166;SDS011;4618;48.818;9.088;2023-07-20T05:02:58;2.47;;;1.90;;
9166;SDS011;4618;48.818;9.088;2023-07-20T05:05:23;3.77;;;1.93;;
9166;SDS011;4618;48.818;9.088;2023-07-20T05:07:49;2.77;;;2.17;;
9166;SDS011;4618;48.818;9.088;2023-07-20T05:10:15;3.13;;;2.07;;
9166;SDS011;4618;48.818;9.088;2023-07-20T05:12:41;3.20;;;1.90;;
9166;SDS011;4618;48.818;9.088;2023-07-20T05:15:06;2.93;;;1.70;;
9166;SDS011;4618;48.818;9.088;2023-07-20T05:17:32;2.97;;;1.73;;
9166;SDS011;4618;48.818;9.088;2023-07-20T05:19:58;3.53;;;1.80;;
9166;SDS011;4618;48.818;9.088;2023-07-20T05:22:23;3.10;;;1.63;;
9166;SDS011;4618;48.818;9.088;2023-07-20T05:24:49;1.90;;;1.53;;
9166;SDS011;4618;48.818;9.088;2023-07-20T05:27:15;2.80;;;1.70;;
9166;SDS011;4618;48.818;9.088;2023-07-20T05:29:44;2.33;;;1.70;;
9166;SDS011;4618;48.818;9.088;2023-07-20T05:32:10;4.17;;;2.03;;
9166;SDS011;4618;48.818;9.088;2023-07-20T05:34:36;3.73;;;1.90;;
9166;SDS011;4618;48.818;9.088;2023-07-20T05:37:01;2.13;;;1.60;;
9166;SDS011;4618;48.818;9.088;2023-07-20T05:39:27;5.07;;;1.60;;
9166;SDS011;4618;48.818;9.088;2023-07-20T05:41:53;2.43;;;1.47;;
9166;SDS011;4618;48.818;9.088;2023-07-20T05:44:18;3.43;;;1.70;;
9166;SDS011;4618;48.818;9.088;2023-07-20T05:46:44;1.73;;;1.50;;
9166;SDS011;4618;48.818;9.088;2023-07-20T05:49:10;3.27;;;1.60;;
9166;SDS011;4618;48.818;9.088;2023-07-20T05:51:35;2.50;;;1.60;;
9166;SDS011;4618;48.818;9.088;2023-07-20T05:54:01;3.93;;;1.80;;
9166;SDS011;4618;48.818;9.088;2023-07-20T05:56:27;2.53;;;1.60;;
9166;SDS011;4618;48.818;9.088;2023-07-20T05:58:52;2.30;;;1.57;;
9166;SDS011;4618;48.818;9.088;2023-07-20T06:01:18;4.23;;;1.60;;
9166;SDS011;4618;48.818;9.088;2023-07-20T06:03:44;2.40;;;1.43;;
9166;SDS011;4618;48.818;9.088;2023-07-20T06:06:09;1.90;;;1.40;;
9166;SDS011;4618;48.818;9.088;2023-07-20T06:08:37;3.23;;;1.43;;
9166;SDS011;4618;48.818;9.088;2023-07-20T06:11:02;2.60;;;1.37;;
9166;SDS011;4618;48.818;9.088;2023-07-20T06:13:28;3.07;;;1.90;;
9166;SDS011;4618;48.818;9.088;2023-07-20T06:15:54;4.17;;;1.53;;
9166;SDS011;4618;48.818;9.088;2023-07-20T06:18:21;2.80;;;1.40;;
9166;SDS011;4618;48.818;9.088;2023-07-20T06:20:50;3.50;;;1.37;;
9166;SDS011;4618;48.818;9.088;2023-07-20T06:23:16;2.90;;;1.27;;
9166;SDS011;4618;48.818;9.088;2023-07-20T06:25:43;6.73;;;1.70;;
9166;SDS011;4618;48.818;9.088;2023-07-20T06:28:09;4.43;;;1.70;;
9166;SDS011;4618;48.818;9.088;2023-07-20T06:30:35;5.03;;;1.27;;
9166;SDS011;4618;48.818;9.088;2023-07-20T06:33:00;4.80;;;1.63;;
9166;SDS011;4618;48.818;9.088;2023-07-20T06:35:26;4.90;;;1.67;;
9166;SDS011;4618;48.818;9.088;2023-07-20T06:37:52;3.60;;;1.30;;
9166;SDS011;4618;48.818;9.088;2023-07-20T06:40:17;4.67;;;1.53;;
9166;SDS011;4618;48.818;9.088;2023-07-20T06:42:43;3.23;;;1.70;;
9166;SDS011;4618;48.818;9.088;2023-07-20T06:45:09;4.23;;;1.67;;
9166;SDS011;4618;48.818;9.088;2023-07-20T06:47:37;2.50;;;1.50;;
9166;SDS011;4618;48.818;9.088;2023-07-20T06:50:05;3.07;;;1.50;;
9166;SDS011;4618;48.818;9.088;2023-07-20T06:52:34;4.47;;;1.40;;
9166;SDS011;4618;48.818;9.088;2023-07-20T06:54:59;3.70;;;1.70;;
9166;SDS011;4618;48.818;9.088;2023-07-20T06:57:25;5.03;;;1.90;;
9166;SDS011;4618;48.818;9.088;2023-07-20T06:59:51;5.67;;;1.70;;
9166;SDS011;4618;48.818;9.088;2023-07-20T07:02:16;4.83;;;1.73;;
9166;SDS011;4618;48.818;9.088;2023-07-20T07:04:42;4.80;;;1.53;;
9166;SDS011;4618;48.818;9.088;2023-07-20T07:07:08;2.07;;;1.43;;
9166;SDS011;4618;48.818;9.088;2023-07-20T07:09:34;2.93;;;1.67;;
9166;SDS011;4618;48.818;9.088;2023-07-20T07:12:00;3.83;;;1.77;;
9166;SDS011;4618;48.818;9.088;2023-07-20T07:14:26;2.57;;;1.40;;
9166;SDS011;4618;48.818;9.088;2023-07-20T07:16:51;3.37;;;1.80;;
9166;SDS011;4618;48.818;9.088;2023-07-20T07:19:17;4.97;;;1.80;;
9166;SDS011;4618;48.818;9.088;2023-07-20T07:21:43;2.30;;;1.33;;
9166;SDS011;4618;48.818;9.088;2023-07-20T07:24:08;2.93;;;1.63;;
9166;SDS011;4618;48.818;9.088;2023-07-20T07:26:35;2.30;;;1.40;;
9166;SDS011;4618;48.818;9.088;2023-07-20T07:29:01;4.73;;;1.77;;
9166;SDS011;4618;48.818;9.088;2023-07-20T07:31:28;4.07;;;1.70;;
9166;SDS011;4618;48.818;9.088;2023-07-20T07:33:55;3.43;;;1.83;;
9166;SDS011;4618;48.818;9.088;2023-07-20T07:36:21;3.47;;;1.50;;
9166;SDS011;4618;48.818;9.088;2023-07-20T07:38:46;3.20;;;1.63;;
9166;SDS011;4618;48.818;9.088;2023-07-20T07:41:12;6.00;;;1.63;;
9166;SDS011;4618;48.818;9.088;2023-07-20T07:43:38;3.23;;;1.60;;
9166;SDS011;4618;48.818;9.088;2023-07-20T07:46:04;1.40;;;1.30;;
9166;SDS011;4618;48.818;9.088;2023-07-20T07:48:30;2.78;;;1.45;;
9166;SDS011;4618;48.818;9.088;2023-07-20T07:50:55;2.35;;;1.60;;
9166;SDS011;4618;48.818;9.088;2023-07-20T07:53:21;3.45;;;1.50;;
9166;SDS011;4618;48.818;9.088;2023-07-20T07:55:49;3.72;;;1.50;;
9166;SDS011;4618;48.818;9.088;2023-07-20T07:58:15;2.17;;;1.30;;
9166;SDS011;4618;48.818;9.088;2023-07-20T08:00:41;1.48;;;1.25;;
9166;SDS011;4618;48.818;9.088;2023-07-20T08:03:06;4.50;;;1.52;;
9166;SDS011;4618;48.818;9.088;2023-07-20T08:05:32;4.87;;;1.67;;
9166;SDS011;4618;48.818;9.088;2023-07-20T08:07:59;2.43;;;1.43;;
9166;SDS011;4618;48.818;9.088;2023-07-20T08:10:26;3.70;;;1.80;;
9166;SDS011;4618;48.818;9.088;2023-07-20T08:12:51;3.70;;;1.60;;
9166;SDS011;4618;48.818;9.088;2023-07-20T08:15:17;2.73;;;1.50;;
9166;SDS011;4618;48.818;9.088;2023-07-20T08:17:42;2.53;;;1.40;;
9166;SDS011;4618;48.818;9.088;2023-07-20T08:20:12;2.33;;;1.80;;
9166;SDS011;4618;48.818;9.088;2023-07-20T08:22:38;3.97;;;1.57;;
9166;SDS011;4618;48.818;9.088;2023-07-20T08:25:07;2.20;;;1.30;;
9166;SDS011;4618;48.818;9.088;2023-07-20T08:27:33;4.10;;;1.57;;
9166;SDS011;4618;48.818;9.088;2023-07-20T08:29:59;2.20;;;1.57;;
9166;SDS011;4618;48.818;9.088;2023-07-20T08:32:25;2.13;;;1.73;;
9166;SDS011;4618;48.818;9.088;2023-07-20T08:34:51;6.10;;;1.35;;
9166;SDS011;4618;48.818;9.088;2023-07-20T08:37:17;2.17;;;1.50;;
9166;SDS011;4618;48.818;9.088;2023-07-20T08:39:42;2.33;;;1.33;;
9166;SDS011;4618;48.818;9.088;2023-07-20T08:42:08;2.78;;;1.25;;
9166;SDS011;4618;48.818;9.088;2023-07-20T08:44:36;2.78;;;1.40;;
9166;SDS011;4618;48.818;9.088;2023-07-20T08:47:03;2.55;;;1.30;;
9166;SDS011;4618;48.818;9.088;2023-07-20T08:49:34;2.45;;;1.70;;
9166;SDS011;4618;48.818;9.088;2023-07-20T08:52:00;4.07;;;1.30;;
9166;SDS011;4618;48.818;9.088;2023-07-20T08:54:32;1.77;;;1.20;;
9166;SDS011;4618;48.818;9.088;2023-07-20T08:57:03;1.60;;;1.40;;
9166;SDS011;4618;48.818;9.088;2023-07-20T08:59:29;1.20;;;1.10;;
9166;SDS011;4618;48.818;9.088;2023-07-20T09:01:59;1.85;;;1.20;;
9166;SDS011;4618;48.818;9.088;2023-07-20T09:04:25;4.40;;;1.42;;
9166;SDS011;4618;48.818;9.088;2023-07-20T09:06:51;2.78;;;1.30;;
9166;SDS011;4618;48.818;9.088;2023-07-20T09:09:17;3.20;;;1.30;;
9166;SDS011;4618;48.818;9.088;2023-07-20T09:11:42;5.57;;;1.42;;
9166;SDS011;4618;48.818;9.088;2023-07-20T09:14:09;6.05;;;1.77;;
9166;SDS011;4618;48.818;9.088;2023-07-20T09:19:14;2.17;;;1.65;;
9166;SDS011;4618;48.818;9.088;2023-07-20T09:21:43;4.88;;;1.67;;
9166;SDS011;4618;48.818;9.088;2023-07-20T09:24:10;1.55;;;1.38;;
9166;SDS011;4618;48.818;9.088;2023-07-20T09:26:40;3.47;;;1.25;;
9166;SDS011;4618;48.818;9.088;2023-07-20T09:29:10;2.67;;;1.20;;
9166;SDS011;4618;48.818;9.088;2023-07-20T09:31:36;3.10;;;1.30;;
9166;SDS011;4618;48.818;9.088;2023-07-20T09:34:02;3.85;;;1.27;;
9166;SDS011;4618;48.818;9.088;2023-07-20T09:36:31;2.10;;;1.10;;
9166;SDS011;4618;48.818;9.088;2023-07-20T09:38:59;2.95;;;1.27;;
9166;SDS011;4618;48.818;9.088;2023-07-20T09:41:25;2.92;;;1.05;;
9166;SDS011;4618;48.818;9.088;2023-07-20T09:43:51;1.85;;;1.08;;
9166;SDS011;4618;48.818;9.088;2023-07-20T09:46:18;5.72;;;1.10;;
9166;SDS011;4618;48.818;9.088;2023-07-20T09:48:54;1.02;;;0.85;;
9166;SDS011;4618;48.818;9.088;2023-07-20T09:51:22;1.65;;;1.10;;
9166;SDS011;4618;48.818;9.088;2023-07-20T09:53:49;1.70;;;0.90;;
9166;SDS011;4618;48.818;9.088;2023-07-20T09:56:17;1.42;;;1.00;;
9166;SDS011;4618;48.818;9.088;2023-07-20T09:58:47;1.00;;;0.90;;
9166;SDS011;4618;48.818;9.088;2023-07-20T10:01:13;1.10;;;0.85;;
9166;SDS011;4618;48.818;9.088;2023-07-20T10:03:45;2.08;;;0.90;;
9166;SDS011;4618;48.818;9.088;2023-07-20T10:06:12;2.47;;;0.70;;
9166;SDS011;4618;48.818;9.088;2023-07-20T10:08:45;1.65;;;0.93;;
9166;SDS011;4618;48.818;9.088;2023-07-20T10:11:12;2.13;;;0.85;;
9166;SDS011;4618;48.818;9.088;2023-07-20T10:13:40;2.20;;;0.80;;
9166;SDS011;4618;48.818;9.088;2023-07-20T10:16:12;0.80;;;0.80;;
9166;SDS011;4618;48.818;9.088;2023-07-20T10:21:26;1.55;;;0.70;;
9166;SDS011;4618;48.818;9.088;2023-07-20T10:23:54;3.90;;;0.82;;
9166;SDS011;4618;48.818;9.088;2023-07-20T10:26:21;1.23;;;0.80;;
9166;SDS011;4618;48.818;9.088;2023-07-20T10:28:47;1.60;;;0.93;;
9166;SDS011;4618;48.818;9.088;2023-07-20T10:31:16;0.68;;;0.65;;
9166;SDS011;4618;48.818;9.088;2023-07-20T10:33:42;2.45;;;0.98;;
9166;SDS011;4618;48.818;9.088;2023-07-20T10:36:09;2.92;;;0.90;;
9166;SDS011;4618;48.818;9.088;2023-07-20T10:38:40;2.95;;;0.90;;
9166;SDS011;4618;48.818;9.088;2023-07-20T10:41:23;1.15;;;1.00;;
9166;SDS011;4618;48.818;9.088;2023-07-20T10:43:55;2.33;;;0.80;;
9166;SDS011;4618;48.818;9.088;2023-07-20T10:49:24;2.38;;;1.00;;
9166;SDS011;4618;48.818;9.088;2023-07-20T10:51:56;1.55;;;0.90;;
9166;SDS011;4618;48.818;9.088;2023-07-20T10:56:52;3.97;;;0.93;;
9166;SDS011;4618;48.818;9.088;2023-07-20T10:59:24;1.35;;;0.70;;
9166;SDS011;4618;48.818;9.088;2023-07-20T11:02:07;1.88;;;0.75;;
9166;SDS011;4618;48.818;9.088;2023-07-20T11:04:39;0.93;;;0.70;;
9166;SDS011;4618;48.818;9.088;2023-07-20T11:07:10;3.03;;;0.80;;
9166;SDS011;4618;48.818;9.088;2023-07-20T11:09:39;1.75;;;0.90;;
9166;SDS011;4618;48.818;9.088;2023-07-20T11:12:09;2.45;;;0.82;;
9166;SDS011;4618;48.818;9.088;2023-07-20T11:14:39;1.38;;;0.70;;
9166;SDS011;4618;48.818;9.088;2023-07-20T11:17:19;1.42;;;1.02;;
9166;SDS011;4618;48.818;9.088;2023-07-20T11:19:54;2.70;;;1.00;;
9166;SDS011;4618;48.818;9.088;2023-07-20T11:22:21;0.98;;;0.70;;
9166;SDS011;4618;48.818;9.088;2023-07-20T11:24:47;3.47;;;0.63;;
9166;SDS011;4618;48.818;9.088;2023-07-20T11:27:16;0.88;;;0.88;;
9166;SDS011;4618;48.818;9.088;2023-07-20T11:29:45;2.22;;;0.75;;
9166;SDS011;4618;48.818;9.088;2023-07-20T11:32:10;0.80;;;0.80;;
9166;SDS011;4618;48.818;9.088;2023-07-20T11:34:36;2.40;;;0.70;;
9166;SDS011;4618;48.818;9.088;2023-07-20T11:37:01;1.00;;;0.77;;
9166;SDS011;4618;48.818;9.088;2023-07-20T11:39:28;2.75;;;0.75;;
9166;SDS011;4618;48.818;9.088;2023-07-20T11:41:54;1.10;;;0.77;;
9166;SDS011;4618;48.818;9.088;2023-07-20T11:44:25;2.55;;;0.70;;
9166;SDS011;4618;48.818;9.088;2023-07-20T11:49:35;0.80;;;0.80;;
9166;SDS011;4618;48.818;9.088;2023-07-20T11:52:05;1.80;;;0.93;;
9166;SDS011;4618;48.818;9.088;2023-07-20T11:54:32;1.10;;;0.68;;
9166;SDS011;4618;48.818;9.088;2023-07-20T11:57:00;1.17;;;0.75;;
9166;SDS011;4618;48.818;9.088;2023-07-20T11:59:26;1.17;;;0.77;;
9166;SDS011;4618;48.818;9.088;2023-07-20T12:01:52;1.92;;;0.70;;
9166;SDS011;4618;48.818;9.088;2023-07-20T12:04:17;0.85;;;0.73;;
9166;SDS011;4618;48.818;9.088;2023-07-20T12:06:44;0.52;;;0.50;;
9166;SDS011;4618;48.818;9.088;2023-07-20T12:09:13;0.88;;;0.82;;
9166;SDS011;4618;48.818;9.088;2023-07-20T12:11:42;2.50;;;0.80;;
9166;SDS011;4618;48.818;9.088;2023-07-20T12:14:08;1.45;;;0.88;;
9166;SDS011;4618;48.818;9.088;2023-07-20T12:16:35;3.33;;;0.90;;
9166;SDS011;4618;48.818;9.088;2023-07-20T12:19:03;2.03;;;0.73;;
9166;SDS011;4618;48.818;9.088;2023-07-20T12:21:30;2.78;;;0.95;;
9166;SDS011;4618;48.818;9.088;2023-07-20T12:23:57;1.85;;;0.70;;
9166;SDS011;4618;48.818;9.088;2023-07-20T12:26:23;0.55;;;0.55;;
9166;SDS011;4618;48.818;9.088;2023-07-20T12:28:50;0.88;;;0.80;;
9166;SDS011;4618;48.818;9.088;2023-07-20T12:31:16;1.15;;;0.70;;
9166;SDS011;4618;48.818;9.088;2023-07-20T12:33:42;0.85;;;0.85;;
9166;SDS011;4618;48.818;9.088;2023-07-20T12:36:09;2.72;;;0.68;;
9166;SDS011;4618;48.818;9.088;2023-07-20T12:38:35;1.67;;;0.75;;
9166;SDS011;4618;48.818;9.088;2023-07-20T12:41:01;1.23;;;0.50;;
9166;SDS011;4618;48.818;9.088;2023-07-20T12:43:28;1.27;;;0.70;;
9166;SDS011;4618;48.818;9.088;2023-07-20T12:45:54;0.80;;;0.70;;
9166;SDS011;4618;48.818;9.088;2023-07-20T12:48:20;1.45;;;0.70;;
9166;SDS011;4618;48.818;9.088;2023-07-20T12:50:46;2.15;;;0.70;;
9166;SDS011;4618;48.818;9.088;2023-07-20T12:53:12;1.42;;;0.73;;
9166;SDS011;4618;48.818;9.088;2023-07-20T12:55:38;1.08;;;0.60;;
9166;SDS011;4618;48.818;9.088;2023-07-20T12:58:07;1.75;;;0.95;;
9166;SDS011;4618;48.818;9.088;2023-07-20T13:00:33;1.40;;;0.70;;
9166;SDS011;4618;48.818;9.088;2023-07-20T13:02:59;1.80;;;0.70;;
9166;SDS011;4618;48.818;9.088;2023-07-20T13:05:25;2.08;;;1.00;;
9166;SDS011;4618;48.818;9.088;2023-07-20T13:07:50;2.72;;;0.80;;
9166;SDS011;4618;48.818;9.088;2023-07-20T13:10:16;1.08;;;0.60;;
9166;SDS011;4618;48.818;9.088;2023-07-20T13:12:43;1.45;;;0.70;;
9166;SDS011;4618;48.818;9.088;2023-07-20T13:15:10;0.88;;;0.80;;
9166;SDS011;4618;48.818;9.088;2023-07-20T13:17:36;0.73;;;0.70;;
9166;SDS011;4618;48.818;9.088;2023-07-20T13:20:06;0.88;;;0.80;;
9166;SDS011;4618;48.818;9.088;2023-07-20T13:22:39;1.73;;;0.65;;
9166;SDS011;4618;48.818;9.088;2023-07-20T13:25:05;2.03;;;0.80;;
9166;SDS011;4618;48.818;9.088;2023-07-20T13:27:31;1.35;;;0.80;;
9166;SDS011;4618;48.818;9.088;2023-07-20T13:29:58;1.05;;;0.85;;
9166;SDS011;4618;48.818;9.088;2023-07-20T13:32:24;1.70;;;0.70;;
9166;SDS011;4618;48.818;9.088;2023-07-20T13:34:50;0.90;;;0.73;;
9166;SDS011;4618;48.818;9.088;2023-07-20T13:37:16;1.52;;;0.80;;
9166;SDS011;4618;48.818;9.088;2023-07-20T13:39:42;1.60;;;0.73;;
9166;SDS011;4618;48.818;9.088;2023-07-20T13:42:08;1.98;;;0.80;;
9166;SDS011;4618;48.818;9.088;2023-07-20T13:44:34;1.95;;;0.70;;
9166;SDS011;4618;48.818;9.088;2023-07-20T13:47:00;0.60;;;0.52;;
9166;SDS011;4618;48.818;9.088;2023-07-20T13:49:26;1.95;;;0.70;;
9166;SDS011;4618;48.818;9.088;2023-07-20T13:51:53;1.75;;;0.80;;
9166;SDS011;4618;48.818;9.088;2023-07-20T13:54:18;1.67;;;0.65;;
9166;SDS011;4618;48.818;9.088;2023-07-20T13:56:46;1.73;;;0.77;;
9166;SDS011;4618;48.818;9.088;2023-07-20T13:59:12;0.77;;;0.73;;
9166;SDS011;4618;48.818;9.088;2023-07-20T14:01:38;3.80;;;0.75;;
9166;SDS011;4618;48.818;9.088;2023-07-20T14:04:04;2.30;;;0.70;;
9166;SDS011;4618;48.818;9.088;2023-07-20T14:06:30;2.17;;;0.77;;
9166;SDS011;4618;48.818;9.088;2023-07-20T14:08:57;0.77;;;0.60;;
9166;SDS011;4618;48.818;9.088;2023-07-20T14:11:23;4.32;;;0.85;;
9166;SDS011;4618;48.818;9.088;2023-07-20T14:13:49;0.90;;;0.70;;
9166;SDS011;4618;48.818;9.088;2023-07-20T14:16:16;1.77;;;0.82;;
9166;SDS011;4618;48.818;9.088;2023-07-20T14:18:41;2.38;;;0.68;;
9166;SDS011;4618;48.818;9.088;2023-07-20T14:21:07;3.22;;;0.70;;
9166;SDS011;4618;48.818;9.088;2023-07-20T14:23:33;2.08;;;0.65;;
9166;SDS011;4618;48.818;9.088;2023-07-20T14:25:59;1.10;;;0.65;;
9166;SDS011;4618;48.818;9.088;2023-07-20T14:28:24;0.80;;;0.80;;
9166;SDS011;4618;48.818;9.088;2023-07-20T14:30:50;3.00;;;0.70;;
9166;SDS011;4618;48.818;9.088;2023-07-20T14:33:16;1.02;;;0.70;;
9166;SDS011;4618;48.818;9.088;2023-07-20T14:35:41;2.25;;;0.70;;
9166;SDS011;4618;48.818;9.088;2023-07-20T14:38:07;0.60;;;0.60;;
9166;SDS011;4618;48.818;9.088;2023-07-20T14:40:32;0.70;;;0.70;;
9166;SDS011;4618;48.818;9.088;2023-07-20T14:42:58;1.00;;;0.80;;
9166;SDS011;4618;48.818;9.088;2023-07-20T14:45:28;0.80;;;0.80;;
9166;SDS011;4618;48.818;9.088;2023-07-20T14:47:53;1.85;;;0.77;;
9166;SDS011;4618;48.818;9.088;2023-07-20T14:50:19;2.35;;;0.80;;
9166;SDS011;4618;48.818;9.088;2023-07-20T14:52:46;2.25;;;0.80;;
9166;SDS011;4618;48.818;9.088;2023-07-20T14:55:12;1.33;;;0.90;;
9166;SDS011;4618;48.818;9.088;2023-07-20T14:57:38;1.13;;;0.70;;
9166;SDS011;4618;48.818;9.088;2023-07-20T15:00:04;1.85;;;0.63;;
9166;SDS011;4618;48.818;9.088;2023-07-20T15:02:35;1.42;;;0.70;;
9166;SDS011;4618;48.818;9.088;2023-07-20T15:05:09;1.70;;;0.70;;
9166;SDS011;4618;48.818;9.088;2023-07-20T15:07:35;1.52;;;0.63;;
9166;SDS011;4618;48.818;9.088;2023-07-20T15:10:02;3.15;;;0.88;;
9166;SDS011;4618;48.818;9.088;2023-07-20T15:12:29;0.60;;;0.57;;
9166;SDS011;4618;48.818;9.088;2023-07-20T15:15:03;1.88;;;0.93;;
9166;SDS011;4618;48.818;9.088;2023-07-20T15:17:32;1.10;;;0.80;;
9166;SDS011;4618;48.818;9.088;2023-07-20T15:19:59;1.05;;;0.60;;
9166;SDS011;4618;48.818;9.088;2023-07-20T15:22:25;1.65;;;0.80;;
9166;SDS011;4618;48.818;9.088;2023-07-20T15:24:51;0.77;;;0.70;;
9166;SDS011;4618;48.818;9.088;2023-07-20T15:27:16;2.33;;;0.90;;
9166;SDS011;4618;48.818;9.088;2023-07-20T15:29:42;2.85;;;0.80;;
9166;SDS011;4618;48.818;9.088;2023-07-20T15:32:09;1.45;;;0.80;;
9166;SDS011;4618;48.818;9.088;2023-07-20T15:34:35;1.02;;;0.80;;
9166;SDS011;4618;48.818;9.088;2023-07-20T15:37:01;1.48;;;1.05;;